createdAt,value
2023-03-06T00:01:10.599Z,3.18
2023-03-06T00:03:38.658Z,3.07
2023-03-06T00:06:06.776Z,3.16
2023-03-06T00:08:34.613Z,3.14
2023-03-06T00:11:02.537Z,3.10
2023-03-06T00:13:32.214Z,3.08
2023-03-06T00:16:03.012Z,3.09
2023-03-06T00:18:30.957Z,3.00
2023-03-06T00:20:59.019Z,2.97
2023-03-06T00:23:27.704Z,2.98
2023-03-06T00:25:55.807Z,3.04
2023-03-06T00:28:23.675Z,3.08
2023-03-06T00:30:51.641Z,3.10
2023-03-06T00:33:19.587Z,3.12
2023-03-06T00:35:47.540Z,3.18
2023-03-06T00:38:15.692Z,3.18
2023-03-06T00:40:43.553Z,3.12
2023-03-06T00:43:12.355Z,3.15
2023-03-06T00:45:40.288Z,3.17
2023-03-06T00:48:09.640Z,3.20
2023-03-06T00:50:37.657Z,3.26
2023-03-06T00:53:05.591Z,3.31
2023-03-06T00:55:33.580Z,3.35
2023-03-06T00:58:01.637Z,3.31
2023-03-06T01:00:29.529Z,3.27
2023-03-06T01:02:57.480Z,3.27
2023-03-06T01:05:25.671Z,3.15
2023-03-06T01:07:53.888Z,3.03
2023-03-06T01:10:21.775Z,3.03
2023-03-06T01:12:49.654Z,2.95
2023-03-06T01:15:20.097Z,2.96
2023-03-06T01:17:48.413Z,2.98
2023-03-06T01:20:17.439Z,2.99
2023-03-06T01:22:45.662Z,3.01
2023-03-06T01:25:13.640Z,3.03
2023-03-06T01:27:41.555Z,2.99
2023-03-06T01:30:12.058Z,2.95
2023-03-06T01:32:40.056Z,2.79
2023-03-06T01:35:08.373Z,2.58
2023-03-06T01:37:36.663Z,2.55
2023-03-06T01:40:04.797Z,2.68
2023-03-06T01:42:32.798Z,2.75
2023-03-06T01:45:26.605Z,2.81
2023-03-06T01:47:54.436Z,2.87
2023-03-06T01:50:22.412Z,2.94
2023-03-06T01:52:56.340Z,3.01
2023-03-06T01:55:30.987Z,3.06
2023-03-06T01:58:00.900Z,3.11
2023-03-06T02:00:29.600Z,3.14
2023-03-06T02:02:57.571Z,3.17
2023-03-06T02:05:25.544Z,3.15
2023-03-06T02:07:54.330Z,3.13
2023-03-06T02:10:22.308Z,3.11
2023-03-06T02:12:50.998Z,3.04
2023-03-06T02:15:20.488Z,3.06
2023-03-06T02:17:49.894Z,3.10
2023-03-06T02:20:20.722Z,3.14
2023-03-06T02:22:51.412Z,3.17
2023-03-06T02:25:28.522Z,3.19
2023-03-06T02:27:57.151Z,3.13
2023-03-06T02:30:26.765Z,3.10
2023-03-06T02:32:55.327Z,3.07
2023-03-06T02:35:25.471Z,3.01
2023-03-06T02:37:53.730Z,3.02
2023-03-06T02:40:22.268Z,3.02
2023-03-06T02:42:58.328Z,3.03
2023-03-06T02:45:35.741Z,3.04
2023-03-06T02:48:04.113Z,3.02
2023-03-06T02:50:32.515Z,3.02
2023-03-06T02:53:02.179Z,3.03
2023-03-06T02:55:31.934Z,3.06
2023-03-06T02:58:00.141Z,3.09
2023-03-06T03:00:28.190Z,3.09
2023-03-06T03:02:56.139Z,3.07
2023-03-06T03:05:24.045Z,3.06
2023-03-06T03:07:57.765Z,3.03
2023-03-06T03:10:26.097Z,3.01
2023-03-06T03:12:54.077Z,2.98
2023-03-06T03:15:22.339Z,2.95
2023-03-06T03:17:50.436Z,2.92
2023-03-06T03:20:19.830Z,2.92
2023-03-06T03:22:49.112Z,2.95
2023-03-06T03:25:17.156Z,2.85
2023-03-06T03:27:45.734Z,2.87
2023-03-06T03:30:13.930Z,2.88
2023-03-06T03:32:41.927Z,2.85
2023-03-06T03:35:11.176Z,2.80
2023-03-06T03:37:39.235Z,2.65
2023-03-06T03:40:08.012Z,2.52
2023-03-06T03:42:35.908Z,2.57
2023-03-06T03:45:04.854Z,2.56
2023-03-06T03:47:32.854Z,2.53
2023-03-06T03:50:01.465Z,2.59
2023-03-06T03:52:29.442Z,2.62
2023-03-06T03:54:57.845Z,2.63
2023-03-06T03:57:26.253Z,2.62
2023-03-06T03:59:54.553Z,2.62
2023-03-06T04:02:30.553Z,2.63
2023-03-06T04:05:05.161Z,2.66
2023-03-06T04:07:33.221Z,2.69
2023-03-06T04:10:01.331Z,2.66
2023-03-06T04:12:30.142Z,2.64
2023-03-06T04:14:58.238Z,2.66
2023-03-06T04:17:27.116Z,2.67
2023-03-06T04:19:55.199Z,2.51
2023-03-06T04:22:23.631Z,2.56
2023-03-06T04:24:51.660Z,2.56
2023-03-06T04:27:20.718Z,2.61
2023-03-06T04:29:48.939Z,2.65
2023-03-06T04:32:17.355Z,2.66
2023-03-06T04:34:45.875Z,2.66
2023-03-06T04:37:24.355Z,2.66
2023-03-06T04:39:52.927Z,2.68
2023-03-06T04:42:20.874Z,2.68
2023-03-06T04:44:48.773Z,2.68
2023-03-06T04:47:19.044Z,2.66
2023-03-06T04:49:47.193Z,2.66
2023-03-06T04:52:15.585Z,2.69
2023-03-06T04:54:43.477Z,2.68
2023-03-06T04:57:11.573Z,2.67
2023-03-06T04:59:39.392Z,2.60
2023-03-06T05:02:07.275Z,2.56
2023-03-06T05:04:35.200Z,2.54
2023-03-06T05:07:03.141Z,2.47
2023-03-06T05:09:30.979Z,2.47
2023-03-06T05:11:58.904Z,2.45
2023-03-06T05:14:28.954Z,2.40
2023-03-06T05:16:57.261Z,2.37
2023-03-06T05:19:25.244Z,2.38
2023-03-06T05:21:53.148Z,2.39
2023-03-06T05:24:21.072Z,2.43
2023-03-06T05:26:48.965Z,2.44
2023-03-06T05:29:16.835Z,2.43
2023-03-06T05:31:44.893Z,2.39
2023-03-06T05:34:16.620Z,2.36
2023-03-06T05:36:44.646Z,2.33
2023-03-06T05:39:12.545Z,2.38
2023-03-06T05:41:40.489Z,2.40
2023-03-06T05:44:08.547Z,2.39
2023-03-06T05:46:37.795Z,2.38
2023-03-06T05:49:05.753Z,2.44
2023-03-06T05:51:33.688Z,2.53
2023-03-06T05:54:01.599Z,2.64
2023-03-06T05:56:29.453Z,2.74
2023-03-06T05:58:57.257Z,2.78
2023-03-06T06:01:25.505Z,2.83
2023-03-06T06:03:53.512Z,2.81
2023-03-06T06:06:21.361Z,2.94
2023-03-06T06:08:49.263Z,3.01
2023-03-06T06:11:18.516Z,3.08
2023-03-06T06:13:47.597Z,3.14
2023-03-06T06:16:16.690Z,3.15
2023-03-06T06:18:45.341Z,3.21
2023-03-06T06:21:14.550Z,3.31
2023-03-06T06:23:42.392Z,3.42
2023-03-06T06:26:10.400Z,3.51
2023-03-06T06:28:38.221Z,3.60
2023-03-06T06:31:10.600Z,3.68
2023-03-06T06:33:39.499Z,3.78
2023-03-06T06:36:15.320Z,3.89
2023-03-06T06:38:43.627Z,4.00
2023-03-06T06:41:35.982Z,4.09
2023-03-06T06:43:59.391Z,4.19
2023-03-06T06:47:10.816Z,4.26
2023-03-06T06:49:15.947Z,4.31
2023-03-06T06:51:44.372Z,4.42
2023-03-06T06:54:12.493Z,4.52
2023-03-06T06:56:40.385Z,4.63
2023-03-06T06:59:16.465Z,4.72
2023-03-06T07:01:45.371Z,4.80
2023-03-06T07:04:13.953Z,4.86
2023-03-06T07:06:42.830Z,4.94
2023-03-06T07:09:12.078Z,5.06
2023-03-06T07:11:40.575Z,5.14
2023-03-06T07:14:08.541Z,5.20
2023-03-06T07:16:36.457Z,5.29
2023-03-06T07:19:04.495Z,5.38
2023-03-06T07:21:32.819Z,5.45
2023-03-06T07:24:00.766Z,5.49
2023-03-06T07:26:28.703Z,5.49
2023-03-06T07:28:56.681Z,5.49
2023-03-06T07:31:26.761Z,5.47
2023-03-06T07:33:55.146Z,5.46
2023-03-06T07:36:24.376Z,5.46
2023-03-06T07:38:52.181Z,5.50
2023-03-06T07:41:22.468Z,5.57
2023-03-06T07:43:50.673Z,5.62
2023-03-06T07:46:19.449Z,5.57
2023-03-06T07:48:47.539Z,5.54
2023-03-06T07:51:17.105Z,5.60
2023-03-06T07:53:45.593Z,5.64
2023-03-06T07:56:13.810Z,5.68
2023-03-06T07:58:43.077Z,5.75
2023-03-06T08:01:15.769Z,5.88
2023-03-06T08:03:43.660Z,6.05
2023-03-06T08:06:11.552Z,6.25
2023-03-06T08:08:40.696Z,6.45
2023-03-06T08:11:09.461Z,6.60
2023-03-06T08:13:37.390Z,6.72
2023-03-06T08:16:06.255Z,6.82
2023-03-06T08:18:34.236Z,6.87
2023-03-06T08:21:05.274Z,6.93
2023-03-06T08:23:33.921Z,7.02
2023-03-06T08:26:03.394Z,7.05
2023-03-06T08:28:31.382Z,7.05
2023-03-06T08:30:59.293Z,7.05
2023-03-06T08:33:28.148Z,7.09
2023-03-06T08:35:55.977Z,7.18
2023-03-06T08:38:23.955Z,7.29
2023-03-06T08:40:51.936Z,7.42
2023-03-06T08:43:19.839Z,7.60
2023-03-06T08:45:54.288Z,7.68
2023-03-06T08:48:22.343Z,7.68
2023-03-06T08:50:50.678Z,7.54
2023-03-06T08:53:19.028Z,7.45
2023-03-06T08:55:47.211Z,7.35
2023-03-06T08:58:15.189Z,7.40
2023-03-06T09:00:43.085Z,7.41
2023-03-06T09:03:11.244Z,7.35
2023-03-06T09:05:40.241Z,7.37
2023-03-06T09:08:08.208Z,7.45
2023-03-06T09:10:36.209Z,7.00
2023-03-06T09:13:04.119Z,6.92
2023-03-06T09:15:32.013Z,7.16
2023-03-06T09:18:00.002Z,7.08
2023-03-06T09:20:28.317Z,7.00
2023-03-06T09:22:56.349Z,7.28
2023-03-06T09:25:25.224Z,7.56
2023-03-06T09:28:08.727Z,7.33
2023-03-06T09:30:39.942Z,7.41
2023-03-06T09:33:08.273Z,7.68
2023-03-06T09:35:36.285Z,7.66
2023-03-06T09:38:04.157Z,7.65
2023-03-06T09:40:50.529Z,7.67
2023-03-06T09:43:20.812Z,7.92
2023-03-06T09:45:48.698Z,8.01
2023-03-06T09:48:16.792Z,7.82
2023-03-06T09:50:46.475Z,7.26
2023-03-06T09:53:17.357Z,7.71
2023-03-06T09:55:58.686Z,8.10
2023-03-06T09:58:27.702Z,8.53
2023-03-06T10:01:04.790Z,8.73
2023-03-06T10:03:36.743Z,8.98
2023-03-06T10:06:23.668Z,9.16
2023-03-06T10:09:03.740Z,9.24
2023-03-06T10:11:36.059Z,9.34
2023-03-06T10:14:26.609Z,9.43
2023-03-06T10:16:55.174Z,9.62
2023-03-06T10:19:23.614Z,9.76
2023-03-06T10:21:54.600Z,9.72
2023-03-06T10:24:41.187Z,9.81
2023-03-06T10:27:09.101Z,9.87
2023-03-06T10:30:01.662Z,9.58
2023-03-06T10:32:46.250Z,9.78
2023-03-06T10:35:18.679Z,10.00
2023-03-06T10:37:46.838Z,10.15
2023-03-06T10:40:22.035Z,10.09
2023-03-06T10:42:58.704Z,10.21
2023-03-06T10:45:47.282Z,10.27
2023-03-06T10:48:21.635Z,10.29
2023-03-06T10:50:49.696Z,9.96
2023-03-06T10:53:25.936Z,9.92
2023-03-06T10:55:55.656Z,10.04
2023-03-06T10:58:30.993Z,10.29
2023-03-06T11:01:01.894Z,10.55
2023-03-06T11:03:29.838Z,11.20
2023-03-06T11:06:04.123Z,11.85
2023-03-06T11:08:32.617Z,12.17
2023-03-06T11:11:00.537Z,12.66
2023-03-06T11:13:30.345Z,13.62
2023-03-06T11:16:02.567Z,14.51
2023-03-06T11:18:40.924Z,15.05
2023-03-06T11:21:26.320Z,15.31
2023-03-06T11:23:55.286Z,15.37
2023-03-06T11:26:32.477Z,14.91
2023-03-06T11:29:02.941Z,14.17
2023-03-06T11:31:37.803Z,14.11
2023-03-06T11:34:11.961Z,14.04
2023-03-06T11:36:55.454Z,13.74
2023-03-06T11:39:36.754Z,14.03
2023-03-06T11:42:13.524Z,14.27
2023-03-06T11:44:41.421Z,14.38
2023-03-06T11:47:22.752Z,14.55
2023-03-06T11:49:53.838Z,14.49
2023-03-06T11:52:43.114Z,14.37
2023-03-06T11:55:15.313Z,14.15
2023-03-06T11:57:50.495Z,13.99
2023-03-06T12:00:27.844Z,13.77
2023-03-06T12:03:14.208Z,13.53
2023-03-06T12:05:52.507Z,13.38
2023-03-06T12:08:28.781Z,13.34
2023-03-06T12:11:15.049Z,13.32
2023-03-06T12:13:59.001Z,13.15
2023-03-06T12:16:35.143Z,12.41
2023-03-06T12:19:13.483Z,12.28
2023-03-06T12:21:47.765Z,11.88
2023-03-06T12:24:15.608Z,11.65
2023-03-06T12:26:46.293Z,11.66
2023-03-06T12:29:16.993Z,11.63
2023-03-06T12:32:01.013Z,11.59
2023-03-06T12:34:31.795Z,11.50
2023-03-06T12:37:15.225Z,11.40
2023-03-06T12:39:55.553Z,10.67
2023-03-06T12:42:32.435Z,10.68
2023-03-06T12:45:00.532Z,11.25
2023-03-06T12:47:29.503Z,12.06
2023-03-06T12:50:01.572Z,13.19
2023-03-06T12:52:31.425Z,13.81
2023-03-06T12:55:00.845Z,13.88
2023-03-06T12:57:29.986Z,13.79
2023-03-06T12:59:57.963Z,14.26
2023-03-06T13:02:41.240Z,14.65
2023-03-06T13:05:24.201Z,15.20
2023-03-06T13:07:52.861Z,15.54
2023-03-06T13:10:26.881Z,15.16
2023-03-06T13:12:57.611Z,15.63
2023-03-06T13:15:35.419Z,16.24
2023-03-06T13:18:21.715Z,17.12
2023-03-06T13:20:50.840Z,17.84
2023-03-06T13:23:34.994Z,17.90
2023-03-06T13:26:04.330Z,17.88
2023-03-06T13:28:38.231Z,18.06
2023-03-06T13:31:10.636Z,18.80
2023-03-06T13:33:43.294Z,19.29
2023-03-06T13:36:20.286Z,19.43
2023-03-06T13:38:51.634Z,18.62
2023-03-06T13:41:22.661Z,19.41
2023-03-06T13:43:51.965Z,19.95
2023-03-06T13:46:25.021Z,19.90
2023-03-06T13:49:08.094Z,19.67
2023-03-06T13:51:40.311Z,19.99
2023-03-06T13:54:26.953Z,20.19
2023-03-06T13:57:15.058Z,19.92
2023-03-06T14:00:08.255Z,19.02
2023-03-06T14:02:56.163Z,18.67
2023-03-06T14:05:24.550Z,18.27
2023-03-06T14:08:04.339Z,18.56
2023-03-06T14:10:34.739Z,19.02
2023-03-06T14:13:02.985Z,18.70
2023-03-06T14:15:42.985Z,18.59
2023-03-06T14:18:14.634Z,18.12
2023-03-06T14:20:44.117Z,16.39
2023-03-06T14:23:16.599Z,15.62
2023-03-06T14:25:46.474Z,15.73
2023-03-06T14:28:24.560Z,15.94
2023-03-06T14:30:53.128Z,15.52
2023-03-06T14:33:27.343Z,15.87
2023-03-06T14:35:56.674Z,15.92
2023-03-06T14:38:24.892Z,15.09
2023-03-06T14:40:52.878Z,14.07
2023-03-06T14:43:24.947Z,13.77
2023-03-06T14:45:58.810Z,13.68
2023-03-06T14:48:38.498Z,13.55
2023-03-06T14:51:07.945Z,13.48
2023-03-06T14:53:35.956Z,13.31
2023-03-06T14:56:06.311Z,13.23
2023-03-06T14:58:34.244Z,13.00
2023-03-06T15:01:04.889Z,12.74
2023-03-06T15:03:44.083Z,12.62
2023-03-06T15:06:16.714Z,12.56
2023-03-06T15:08:46.558Z,12.48
2023-03-06T15:11:14.454Z,12.33
2023-03-06T15:13:42.433Z,12.11
2023-03-06T15:16:13.154Z,12.03
2023-03-06T15:18:54.103Z,11.84
2023-03-06T15:21:22.804Z,11.62
2023-03-06T15:23:51.720Z,11.45
2023-03-06T15:26:22.499Z,11.35
2023-03-06T15:29:06.984Z,11.25
2023-03-06T15:31:38.174Z,11.16
2023-03-06T15:34:06.259Z,11.10
2023-03-06T15:36:35.458Z,11.05
2023-03-06T15:39:23.252Z,11.01
2023-03-06T15:41:56.109Z,11.01
2023-03-06T15:44:24.020Z,11.00
2023-03-06T15:46:59.243Z,10.97
2023-03-06T15:49:36.393Z,10.95
2023-03-06T15:52:04.537Z,10.86
2023-03-06T15:54:33.105Z,10.73
2023-03-06T15:57:02.773Z,10.59
2023-03-06T15:59:33.157Z,10.44
2023-03-06T16:02:04.025Z,10.30
2023-03-06T16:04:31.943Z,10.16
2023-03-06T16:06:59.937Z,9.99
2023-03-06T16:09:27.840Z,9.84
2023-03-06T16:11:55.804Z,9.71
2023-03-06T16:14:24.102Z,9.53
2023-03-06T16:16:54.278Z,9.37
2023-03-06T16:19:27.093Z,9.24
2023-03-06T16:21:55.982Z,9.08
2023-03-06T16:24:26.247Z,8.97
2023-03-06T16:26:55.044Z,8.89
2023-03-06T16:29:26.480Z,8.82
2023-03-06T16:31:55.424Z,8.75
2023-03-06T16:34:23.904Z,8.70
2023-03-06T16:36:51.842Z,8.63
2023-03-06T16:39:21.196Z,8.52
2023-03-06T16:41:51.878Z,8.38
2023-03-06T16:44:20.503Z,8.24
2023-03-06T16:46:49.738Z,8.11
2023-03-06T16:49:19.326Z,8.02
2023-03-06T16:51:47.205Z,7.91
2023-03-06T16:54:15.111Z,7.80
2023-03-06T16:56:43.030Z,7.68
2023-03-06T16:59:11.140Z,7.59
2023-03-06T17:01:40.615Z,7.46
2023-03-06T17:04:08.661Z,7.35
2023-03-06T17:06:36.600Z,7.24
2023-03-06T17:09:04.889Z,7.17
2023-03-06T17:11:32.836Z,7.12
2023-03-06T17:14:01.519Z,7.08
2023-03-06T17:16:29.430Z,7.00
2023-03-06T17:18:58.443Z,6.93
2023-03-06T17:21:27.230Z,6.83
2023-03-06T17:23:55.601Z,6.75
2023-03-06T17:26:23.560Z,6.71
2023-03-06T17:28:51.526Z,6.59
2023-03-06T17:31:21.370Z,6.44
2023-03-06T17:33:49.654Z,6.30
2023-03-06T17:36:19.469Z,6.19
2023-03-06T17:38:47.659Z,6.11
2023-03-06T17:41:15.515Z,6.04
2023-03-06T17:43:43.338Z,5.97
2023-03-06T17:46:12.779Z,5.90
2023-03-06T17:48:40.898Z,5.84
2023-03-06T17:51:09.382Z,5.79
2023-03-06T17:53:37.354Z,5.74
2023-03-06T17:56:09.666Z,5.68
2023-03-06T17:58:37.537Z,5.59
2023-03-06T18:01:11.596Z,5.49
2023-03-06T18:03:39.924Z,5.43
2023-03-06T18:06:09.554Z,5.36
2023-03-06T18:08:38.206Z,5.31
2023-03-06T18:11:07.174Z,5.24
2023-03-06T18:13:36.173Z,5.18
2023-03-06T18:16:04.813Z,5.14
2023-03-06T18:18:33.024Z,5.07
2023-03-06T18:21:08.039Z,4.99
2023-03-06T18:23:36.409Z,4.89
2023-03-06T18:26:11.857Z,4.81
2023-03-06T18:28:42.660Z,4.75
2023-03-06T18:31:14.683Z,4.68
2023-03-06T18:33:42.734Z,4.61
2023-03-06T18:36:10.999Z,4.57
2023-03-06T18:38:40.265Z,4.54
2023-03-06T18:41:08.666Z,4.48
2023-03-06T18:43:37.276Z,4.43
2023-03-06T18:46:05.739Z,4.41
2023-03-06T18:48:33.626Z,4.40
2023-03-06T18:51:05.941Z,4.40
2023-03-06T18:53:34.168Z,4.41
2023-03-06T18:56:02.668Z,4.41
2023-03-06T18:58:30.544Z,4.40
2023-03-06T19:00:59.830Z,4.39
2023-03-06T19:03:28.041Z,4.38
2023-03-06T19:05:55.971Z,4.39
2023-03-06T19:08:24.959Z,4.39
2023-03-06T19:10:52.955Z,4.39
2023-03-06T19:13:20.868Z,4.36
2023-03-06T19:15:49.208Z,4.30
2023-03-06T19:18:18.164Z,4.23
2023-03-06T19:20:46.287Z,4.16
2023-03-06T19:23:14.277Z,4.10
2023-03-06T19:25:42.278Z,4.03
2023-03-06T19:28:10.143Z,3.96
2023-03-06T19:30:39.921Z,3.90
2023-03-06T19:33:07.811Z,3.82
2023-03-06T19:35:35.991Z,3.78
2023-03-06T19:38:03.935Z,3.74
2023-03-06T19:40:31.806Z,3.68
2023-03-06T19:42:59.659Z,3.63
2023-03-06T19:45:27.537Z,3.57
2023-03-06T19:48:00.656Z,3.54
2023-03-06T19:50:29.724Z,3.53
2023-03-06T19:52:57.837Z,3.51
2023-03-06T19:55:26.449Z,3.50
2023-03-06T19:57:54.554Z,3.47
2023-03-06T20:00:22.542Z,3.45
2023-03-06T20:02:50.535Z,3.44
2023-03-06T20:05:18.493Z,3.45
2023-03-06T20:07:46.342Z,3.45
2023-03-06T20:10:14.382Z,3.46
2023-03-06T20:12:42.265Z,3.48
2023-03-06T20:15:10.533Z,3.49
2023-03-06T20:17:40.603Z,3.50
2023-03-06T20:20:09.296Z,3.51
2023-03-06T20:22:37.207Z,3.49
2023-03-06T20:25:05.464Z,3.50
2023-03-06T20:27:33.542Z,3.49
2023-03-06T20:30:01.556Z,3.49
2023-03-06T20:32:29.512Z,3.49
2023-03-06T20:34:57.373Z,3.48
2023-03-06T20:37:25.199Z,3.47
2023-03-06T20:39:53.173Z,3.43
2023-03-06T20:42:21.090Z,3.42
2023-03-06T20:44:48.891Z,3.40
2023-03-06T20:47:17.274Z,3.38
2023-03-06T20:49:45.107Z,3.35
2023-03-06T20:52:13.012Z,3.35
2023-03-06T20:54:40.874Z,3.35
2023-03-06T20:57:08.853Z,3.34
2023-03-06T20:59:37.322Z,3.34
2023-03-06T21:02:05.262Z,3.36
2023-03-06T21:04:33.169Z,3.41
2023-03-06T21:07:01.052Z,3.45
2023-03-06T21:09:28.956Z,3.49
2023-03-06T21:11:56.928Z,3.54
2023-03-06T21:14:24.837Z,3.58
2023-03-06T21:16:52.810Z,3.60
2023-03-06T21:19:20.774Z,3.61
2023-03-06T21:21:48.747Z,3.59
2023-03-06T21:24:16.730Z,3.59
2023-03-06T21:26:44.744Z,3.57
2023-03-06T21:29:12.592Z,3.56
2023-03-06T21:31:41.059Z,3.55
2023-03-06T21:34:10.660Z,3.56
2023-03-06T21:36:38.494Z,3.58
2023-03-06T21:39:06.516Z,3.61
2023-03-06T21:41:34.503Z,3.64
2023-03-06T21:44:03.622Z,3.66
2023-03-06T21:46:31.956Z,3.69
2023-03-06T21:49:01.366Z,3.70
2023-03-06T21:51:29.268Z,3.73
2023-03-06T21:53:57.247Z,3.73
2023-03-06T21:56:25.627Z,3.73
2023-03-06T21:58:54.283Z,3.76
2023-03-06T22:01:24.253Z,3.79
2023-03-06T22:03:52.630Z,3.83
2023-03-06T22:06:21.901Z,3.85
2023-03-06T22:08:49.926Z,3.88
2023-03-06T22:11:19.128Z,3.92
2023-03-06T22:13:48.174Z,3.94
2023-03-06T22:16:16.953Z,3.97
2023-03-06T22:18:45.715Z,3.98
2023-03-06T22:21:14.751Z,3.99
2023-03-06T22:23:43.001Z,4.02
2023-03-06T22:26:12.864Z,4.03
2023-03-06T22:28:41.418Z,4.06
2023-03-06T22:31:14.073Z,4.07
2023-03-06T22:33:42.063Z,4.09
2023-03-06T22:36:11.720Z,4.09
2023-03-06T22:38:41.011Z,4.09
2023-03-06T22:41:09.323Z,4.11
2023-03-06T22:43:37.231Z,4.11
2023-03-06T22:46:06.533Z,4.12
2023-03-06T22:48:34.708Z,4.15
2023-03-06T22:51:03.861Z,4.16
2023-03-06T22:53:31.937Z,4.17
2023-03-06T22:56:00.598Z,4.16
2023-03-06T22:58:34.237Z,4.17
2023-03-06T23:01:06.161Z,4.20
2023-03-06T23:03:35.265Z,4.20
2023-03-06T23:06:29.362Z,4.21
2023-03-06T23:08:58.693Z,4.25
2023-03-06T23:11:30.306Z,4.28
2023-03-06T23:14:17.418Z,4.31
2023-03-06T23:17:04.920Z,4.33
2023-03-06T23:19:51.373Z,4.30
2023-03-06T23:22:37.717Z,4.22
2023-03-06T23:25:24.331Z,4.22
2023-03-06T23:27:52.373Z,4.24
2023-03-06T23:30:20.255Z,4.26
2023-03-06T23:32:48.288Z,4.29
2023-03-06T23:35:16.192Z,4.28
2023-03-06T23:37:44.184Z,4.29
2023-03-06T23:40:13.732Z,4.30
2023-03-06T23:42:41.530Z,4.33
2023-03-06T23:45:09.717Z,4.34
2023-03-06T23:47:37.655Z,4.36
2023-03-06T23:50:06.503Z,4.39
2023-03-06T23:52:34.371Z,4.42
2023-03-06T23:55:02.287Z,4.41
2023-03-06T23:57:30.751Z,4.42
2023-03-06T23:59:58.790Z,4.41
